sensor_id;sensor_type;location;lat;lon;timestamp;P1;durP1;ratioP1;P2;durP2;ratioP2
2021;SDS011;1015;49.756;6.994;2023-07-08T00:01:27;10.43;;;7.90;;
2021;SDS011;1015;49.756;6.994;2023-07-08T00:03:54;8.60;;;7.57;;
2021;SDS011;1015;49.756;6.994;2023-07-08T00:06:22;9.57;;;8.00;;
2021;SDS011;1015;49.756;6.994;2023-07-08T00:08:49;8.63;;;7.73;;
2021;SDS011;1015;49.756;6.994;2023-07-08T00:11:18;10.17;;;8.07;;
2021;SDS011;1015;49.756;6.994;2023-07-08T00:13:45;10.30;;;7.33;;
2021;SDS011;1015;49.756;6.994;2023-07-08T00:16:14;8.80;;;6.90;;
2021;SDS011;1015;49.756;6.994;2023-07-08T00:18:42;7.83;;;7.03;;
2021;SDS011;1015;49.756;6.994;2023-07-08T00:21:09;7.50;;;6.23;;
2021;SDS011;1015;49.756;6.994;2023-07-08T00:23:40;7.93;;;6.10;;
2021;SDS011;1015;49.756;6.994;2023-07-08T00:26:09;7.63;;;6.17;;
2021;SDS011;1015;49.756;6.994;2023-07-08T00:28:38;7.07;;;6.30;;
2021;SDS011;1015;49.756;6.994;2023-07-08T00:31:08;8.50;;;6.97;;
2021;SDS011;1015;49.756;6.994;2023-07-08T00:33:35;7.83;;;6.30;;
2021;SDS011;1015;49.756;6.994;2023-07-08T00:36:05;7.27;;;6.30;;
2021;SDS011;1015;49.756;6.994;2023-07-08T00:38:35;7.40;;;6.20;;
2021;SDS011;1015;49.756;6.994;2023-07-08T00:41:06;11.67;;;6.03;;
2021;SDS011;1015;49.756;6.994;2023-07-08T00:43:36;9.03;;;6.87;;
2021;SDS011;1015;49.756;6.994;2023-07-08T00:46:08;7.83;;;6.73;;
2021;SDS011;1015;49.756;6.994;2023-07-08T00:48:39;7.77;;;6.93;;
2021;SDS011;1015;49.756;6.994;2023-07-08T00:51:07;7.70;;;6.90;;
2021;SDS011;1015;49.756;6.994;2023-07-08T00:53:36;8.33;;;6.57;;
2021;SDS011;1015;49.756;6.994;2023-07-08T00:56:03;8.03;;;7.23;;
2021;SDS011;1015;49.756;6.994;2023-07-08T00:58:33;8.90;;;7.33;;
2021;SDS011;1015;49.756;6.994;2023-07-08T01:01:01;9.40;;;6.70;;
2021;SDS011;1015;49.756;6.994;2023-07-08T01:03:31;7.07;;;6.33;;
2021;SDS011;1015;49.756;6.994;2023-07-08T01:06:00;8.17;;;6.47;;
2021;SDS011;1015;49.756;6.994;2023-07-08T01:08:27;7.20;;;5.67;;
2021;SDS011;1015;49.756;6.994;2023-07-08T01:10:57;9.07;;;6.47;;
2021;SDS011;1015;49.756;6.994;2023-07-08T01:13:26;7.80;;;5.30;;
2021;SDS011;1015;49.756;6.994;2023-07-08T01:15:54;6.33;;;5.40;;
2021;SDS011;1015;49.756;6.994;2023-07-08T01:18:21;6.40;;;5.30;;
2021;SDS011;1015;49.756;6.994;2023-07-08T01:20:51;8.40;;;5.20;;
2021;SDS011;1015;49.756;6.994;2023-07-08T01:23:22;9.30;;;6.43;;
2021;SDS011;1015;49.756;6.994;2023-07-08T01:25:49;10.53;;;6.33;;
2021;SDS011;1015;49.756;6.994;2023-07-08T01:28:17;7.83;;;6.10;;
2021;SDS011;1015;49.756;6.994;2023-07-08T01:30:44;8.43;;;7.20;;
2021;SDS011;1015;49.756;6.994;2023-07-08T01:33:13;7.10;;;6.07;;
2021;SDS011;1015;49.756;6.994;2023-07-08T01:35:42;7.63;;;6.47;;
2021;SDS011;1015;49.756;6.994;2023-07-08T01:38:10;8.57;;;6.60;;
2021;SDS011;1015;49.756;6.994;2023-07-08T01:40:48;7.60;;;6.30;;
2021;SDS011;1015;49.756;6.994;2023-07-08T01:43:15;6.53;;;5.40;;
2021;SDS011;1015;49.756;6.994;2023-07-08T01:45:42;6.77;;;5.30;;
2021;SDS011;1015;49.756;6.994;2023-07-08T01:48:11;7.40;;;5.63;;
2021;SDS011;1015;49.756;6.994;2023-07-08T01:50:39;5.27;;;4.73;;
2021;SDS011;1015;49.756;6.994;2023-07-08T01:53:08;5.70;;;5.10;;
2021;SDS011;1015;49.756;6.994;2023-07-08T01:55:36;5.30;;;4.70;;
2021;SDS011;1015;49.756;6.994;2023-07-08T01:58:05;6.10;;;4.80;;
2021;SDS011;1015;49.756;6.994;2023-07-08T02:00:32;6.63;;;5.00;;
2021;SDS011;1015;49.756;6.994;2023-07-08T02:02:59;4.77;;;4.17;;
2021;SDS011;1015;49.756;6.994;2023-07-08T02:05:26;6.10;;;5.10;;
2021;SDS011;1015;49.756;6.994;2023-07-08T02:07:53;8.00;;;4.83;;
2021;SDS011;1015;49.756;6.994;2023-07-08T02:10:21;7.90;;;5.13;;
2021;SDS011;1015;49.756;6.994;2023-07-08T02:12:50;7.30;;;5.20;;
2021;SDS011;1015;49.756;6.994;2023-07-08T02:15:19;6.60;;;5.27;;
2021;SDS011;1015;49.756;6.994;2023-07-08T02:17:46;7.13;;;5.30;;
2021;SDS011;1015;49.756;6.994;2023-07-08T02:20:14;8.87;;;5.93;;
2021;SDS011;1015;49.756;6.994;2023-07-08T02:22:41;6.60;;;5.60;;
2021;SDS011;1015;49.756;6.994;2023-07-08T02:25:09;5.90;;;5.30;;
2021;SDS011;1015;49.756;6.994;2023-07-08T02:27:36;6.67;;;5.97;;
2021;SDS011;1015;49.756;6.994;2023-07-08T02:30:04;6.57;;;5.97;;
2021;SDS011;1015;49.756;6.994;2023-07-08T02:32:32;6.57;;;5.90;;
2021;SDS011;1015;49.756;6.994;2023-07-08T02:35:00;7.20;;;6.33;;
2021;SDS011;1015;49.756;6.994;2023-07-08T02:37:28;6.77;;;5.90;;
2021;SDS011;1015;49.756;6.994;2023-07-08T02:39:55;6.73;;;5.90;;
2021;SDS011;1015;49.756;6.994;2023-07-08T02:42:23;8.27;;;5.67;;
2021;SDS011;1015;49.756;6.994;2023-07-08T02:44:50;6.63;;;5.63;;
2021;SDS011;1015;49.756;6.994;2023-07-08T02:47:17;6.80;;;6.10;;
2021;SDS011;1015;49.756;6.994;2023-07-08T02:49:46;10.00;;;6.90;;
2021;SDS011;1015;49.756;6.994;2023-07-08T02:52:13;7.07;;;6.07;;
2021;SDS011;1015;49.756;6.994;2023-07-08T02:54:40;8.47;;;5.70;;
2021;SDS011;1015;49.756;6.994;2023-07-08T02:57:07;7.73;;;5.80;;
2021;SDS011;1015;49.756;6.994;2023-07-08T02:59:34;7.47;;;6.43;;
2021;SDS011;1015;49.756;6.994;2023-07-08T03:02:02;7.63;;;5.93;;
2021;SDS011;1015;49.756;6.994;2023-07-08T03:04:29;8.07;;;5.90;;
2021;SDS011;1015;49.756;6.994;2023-07-08T03:06:58;8.03;;;5.90;;
2021;SDS011;1015;49.756;6.994;2023-07-08T03:09:25;6.83;;;6.13;;
2021;SDS011;1015;49.756;6.994;2023-07-08T03:11:54;6.60;;;5.77;;
2021;SDS011;1015;49.756;6.994;2023-07-08T03:14:21;6.67;;;5.70;;
2021;SDS011;1015;49.756;6.994;2023-07-08T03:16:48;9.20;;;6.63;;
2021;SDS011;1015;49.756;6.994;2023-07-08T03:19:15;9.20;;;6.40;;
2021;SDS011;1015;49.756;6.994;2023-07-08T03:21:42;6.70;;;5.63;;
2021;SDS011;1015;49.756;6.994;2023-07-08T03:24:11;7.17;;;6.40;;
2021;SDS011;1015;49.756;6.994;2023-07-08T03:26:38;8.10;;;6.40;;
2021;SDS011;1015;49.756;6.994;2023-07-08T03:29:07;7.80;;;6.00;;
2021;SDS011;1015;49.756;6.994;2023-07-08T03:31:35;7.10;;;6.20;;
2021;SDS011;1015;49.756;6.994;2023-07-08T03:34:03;8.63;;;6.63;;
2021;SDS011;1015;49.756;6.994;2023-07-08T03:36:30;7.67;;;6.33;;
2021;SDS011;1015;49.756;6.994;2023-07-08T03:38:57;7.47;;;6.10;;
2021;SDS011;1015;49.756;6.994;2023-07-08T03:41:26;7.70;;;6.50;;
2021;SDS011;1015;49.756;6.994;2023-07-08T03:43:54;7.70;;;6.50;;
2021;SDS011;1015;49.756;6.994;2023-07-08T03:46:21;7.50;;;6.70;;
2021;SDS011;1015;49.756;6.994;2023-07-08T03:48:48;7.40;;;6.63;;
2021;SDS011;1015;49.756;6.994;2023-07-08T03:51:17;8.07;;;6.37;;
2021;SDS011;1015;49.756;6.994;2023-07-08T03:53:47;8.10;;;6.83;;
2021;SDS011;1015;49.756;6.994;2023-07-08T03:56:14;7.50;;;6.70;;
2021;SDS011;1015;49.756;6.994;2023-07-08T03:58:42;7.40;;;6.07;;
2021;SDS011;1015;49.756;6.994;2023-07-08T04:01:12;8.27;;;6.23;;
2021;SDS011;1015;49.756;6.994;2023-07-08T04:03:40;7.67;;;6.43;;
2021;SDS011;1015;49.756;6.994;2023-07-08T04:06:07;9.87;;;6.27;;
2021;SDS011;1015;49.756;6.994;2023-07-08T04:08:35;8.57;;;6.60;;
2021;SDS011;1015;49.756;6.994;2023-07-08T04:11:02;9.50;;;6.70;;
2021;SDS011;1015;49.756;6.994;2023-07-08T04:13:29;8.13;;;6.40;;
2021;SDS011;1015;49.756;6.994;2023-07-08T04:15:58;8.73;;;6.47;;
2021;SDS011;1015;49.756;6.994;2023-07-08T04:18:26;8.00;;;7.00;;
2021;SDS011;1015;49.756;6.994;2023-07-08T04:20:53;7.80;;;6.23;;
2021;SDS011;1015;49.756;6.994;2023-07-08T04:23:21;7.77;;;6.40;;
2021;SDS011;1015;49.756;6.994;2023-07-08T04:25:48;8.40;;;6.37;;
2021;SDS011;1015;49.756;6.994;2023-07-08T04:28:16;8.90;;;7.33;;
2021;SDS011;1015;49.756;6.994;2023-07-08T04:30:43;8.07;;;6.97;;
2021;SDS011;1015;49.756;6.994;2023-07-08T04:33:13;8.40;;;7.00;;
2021;SDS011;1015;49.756;6.994;2023-07-08T04:35:40;8.13;;;6.90;;
2021;SDS011;1015;49.756;6.994;2023-07-08T04:38:09;7.33;;;6.57;;
2021;SDS011;1015;49.756;6.994;2023-07-08T04:40:40;8.27;;;6.73;;
2021;SDS011;1015;49.756;6.994;2023-07-08T04:43:08;7.50;;;6.27;;
2021;SDS011;1015;49.756;6.994;2023-07-08T04:45:37;8.80;;;6.87;;
2021;SDS011;1015;49.756;6.994;2023-07-08T04:48:04;9.03;;;7.13;;
2021;SDS011;1015;49.756;6.994;2023-07-08T04:50:38;10.40;;;6.73;;
2021;SDS011;1015;49.756;6.994;2023-07-08T04:53:06;9.13;;;6.67;;
2021;SDS011;1015;49.756;6.994;2023-07-08T04:55:34;9.03;;;6.80;;
2021;SDS011;1015;49.756;6.994;2023-07-08T04:58:01;8.03;;;7.23;;
2021;SDS011;1015;49.756;6.994;2023-07-08T05:00:28;8.50;;;7.07;;
2021;SDS011;1015;49.756;6.994;2023-07-08T05:02:55;7.17;;;6.47;;
2021;SDS011;1015;49.756;6.994;2023-07-08T05:05:23;8.10;;;6.80;;
2021;SDS011;1015;49.756;6.994;2023-07-08T05:07:51;10.23;;;7.33;;
2021;SDS011;1015;49.756;6.994;2023-07-08T05:10:19;8.70;;;6.63;;
2021;SDS011;1015;49.756;6.994;2023-07-08T05:12:46;8.43;;;6.80;;
2021;SDS011;1015;49.756;6.994;2023-07-08T05:15:14;8.30;;;6.47;;
2021;SDS011;1015;49.756;6.994;2023-07-08T05:17:42;7.73;;;6.93;;
2021;SDS011;1015;49.756;6.994;2023-07-08T05:20:10;8.93;;;7.87;;
2021;SDS011;1015;49.756;6.994;2023-07-08T05:22:38;7.87;;;7.07;;
2021;SDS011;1015;49.756;6.994;2023-07-08T05:25:09;7.57;;;6.80;;
2021;SDS011;1015;49.756;6.994;2023-07-08T05:27:36;7.93;;;7.13;;
2021;SDS011;1015;49.756;6.994;2023-07-08T05:30:04;8.13;;;6.70;;
2021;SDS011;1015;49.756;6.994;2023-07-08T05:32:32;8.03;;;6.80;;
2021;SDS011;1015;49.756;6.994;2023-07-08T05:35:00;8.13;;;7.17;;
2021;SDS011;1015;49.756;6.994;2023-07-08T05:37:27;8.13;;;7.20;;
2021;SDS011;1015;49.756;6.994;2023-07-08T05:39:54;9.50;;;6.73;;
2021;SDS011;1015;49.756;6.994;2023-07-08T05:42:24;7.80;;;6.80;;
2021;SDS011;1015;49.756;6.994;2023-07-08T05:44:52;7.53;;;6.67;;
2021;SDS011;1015;49.756;6.994;2023-07-08T05:47:20;8.37;;;7.47;;
2021;SDS011;1015;49.756;6.994;2023-07-08T05:49:47;6.43;;;5.50;;
2021;SDS011;1015;49.756;6.994;2023-07-08T05:52:14;7.53;;;6.73;;
2021;SDS011;1015;49.756;6.994;2023-07-08T05:54:42;7.90;;;7.10;;
2021;SDS011;1015;49.756;6.994;2023-07-08T05:57:09;8.43;;;6.40;;
2021;SDS011;1015;49.756;6.994;2023-07-08T05:59:38;8.47;;;6.83;;
2021;SDS011;1015;49.756;6.994;2023-07-08T06:02:09;7.10;;;6.40;;
2021;SDS011;1015;49.756;6.994;2023-07-08T06:04:36;7.63;;;6.20;;
2021;SDS011;1015;49.756;6.994;2023-07-08T06:07:04;7.73;;;6.67;;
2021;SDS011;1015;49.756;6.994;2023-07-08T06:09:31;10.07;;;7.17;;
2021;SDS011;1015;49.756;6.994;2023-07-08T06:11:58;7.73;;;6.67;;
2021;SDS011;1015;49.756;6.994;2023-07-08T06:14:26;8.10;;;7.27;;
2021;SDS011;1015;49.756;6.994;2023-07-08T06:16:54;6.70;;;6.00;;
2021;SDS011;1015;49.756;6.994;2023-07-08T06:19:22;8.10;;;6.47;;
2021;SDS011;1015;49.756;6.994;2023-07-08T06:21:49;8.23;;;6.80;;
2021;SDS011;1015;49.756;6.994;2023-07-08T06:24:16;7.30;;;6.50;;
2021;SDS011;1015;49.756;6.994;2023-07-08T06:26:43;7.13;;;6.43;;
2021;SDS011;1015;49.756;6.994;2023-07-08T06:29:11;7.10;;;6.40;;
2021;SDS011;1015;49.756;6.994;2023-07-08T06:31:38;7.27;;;6.17;;
2021;SDS011;1015;49.756;6.994;2023-07-08T06:34:08;7.60;;;6.80;;
2021;SDS011;1015;49.756;6.994;2023-07-08T06:36:36;8.17;;;7.30;;
2021;SDS011;1015;49.756;6.994;2023-07-08T06:39:04;7.50;;;6.40;;
2021;SDS011;1015;49.756;6.994;2023-07-08T06:41:32;8.37;;;7.13;;
2021;SDS011;1015;49.756;6.994;2023-07-08T06:43:59;9.20;;;7.30;;
2021;SDS011;1015;49.756;6.994;2023-07-08T06:46:26;8.60;;;7.03;;
2021;SDS011;1015;49.756;6.994;2023-07-08T06:48:54;7.63;;;6.80;;
2021;SDS011;1015;49.756;6.994;2023-07-08T06:51:22;7.13;;;6.47;;
2021;SDS011;1015;49.756;6.994;2023-07-08T06:53:50;6.73;;;6.13;;
2021;SDS011;1015;49.756;6.994;2023-07-08T06:56:17;9.97;;;7.00;;
2021;SDS011;1015;49.756;6.994;2023-07-08T06:58:44;7.77;;;6.90;;
2021;SDS011;1015;49.756;6.994;2023-07-08T07:01:11;7.60;;;6.90;;
2021;SDS011;1015;49.756;6.994;2023-07-08T07:03:39;8.00;;;7.00;;
2021;SDS011;1015;49.756;6.994;2023-07-08T07:06:06;8.93;;;6.70;;
2021;SDS011;1015;49.756;6.994;2023-07-08T07:08:35;6.70;;;6.00;;
2021;SDS011;1015;49.756;6.994;2023-07-08T07:11:02;7.73;;;6.90;;
2021;SDS011;1015;49.756;6.994;2023-07-08T07:13:29;7.63;;;6.70;;
2021;SDS011;1015;49.756;6.994;2023-07-08T07:15:57;8.17;;;6.50;;
2021;SDS011;1015;49.756;6.994;2023-07-08T07:18:25;8.13;;;7.20;;
2021;SDS011;1015;49.756;6.994;2023-07-08T07:20:53;7.53;;;6.33;;
2021;SDS011;1015;49.756;6.994;2023-07-08T07:23:20;7.67;;;6.77;;
2021;SDS011;1015;49.756;6.994;2023-07-08T07:25:49;8.03;;;6.50;;
2021;SDS011;1015;49.756;6.994;2023-07-08T07:28:16;7.63;;;5.90;;
2021;SDS011;1015;49.756;6.994;2023-07-08T07:30:44;8.03;;;6.77;;
2021;SDS011;1015;49.756;6.994;2023-07-08T07:33:12;7.53;;;6.73;;
2021;SDS011;1015;49.756;6.994;2023-07-08T07:35:41;9.13;;;6.73;;
2021;SDS011;1015;49.756;6.994;2023-07-08T07:38:09;7.47;;;6.10;;
2021;SDS011;1015;49.756;6.994;2023-07-08T07:40:36;7.60;;;6.90;;
2021;SDS011;1015;49.756;6.994;2023-07-08T07:43:04;9.30;;;6.67;;
2021;SDS011;1015;49.756;6.994;2023-07-08T07:45:32;7.80;;;5.90;;
2021;SDS011;1015;49.756;6.994;2023-07-08T07:47:59;8.13;;;7.27;;
2021;SDS011;1015;49.756;6.994;2023-07-08T07:50:26;8.23;;;7.43;;
2021;SDS011;1015;49.756;6.994;2023-07-08T07:52:54;8.13;;;7.33;;
2021;SDS011;1015;49.756;6.994;2023-07-08T07:55:21;7.80;;;6.73;;
2021;SDS011;1015;49.756;6.994;2023-07-08T07:57:48;7.70;;;6.50;;
2021;SDS011;1015;49.756;6.994;2023-07-08T08:00:17;7.00;;;6.10;;
2021;SDS011;1015;49.756;6.994;2023-07-08T08:02:44;6.80;;;6.10;;
2021;SDS011;1015;49.756;6.994;2023-07-08T08:05:11;7.43;;;6.73;;
2021;SDS011;1015;49.756;6.994;2023-07-08T08:07:38;10.50;;;6.50;;
2021;SDS011;1015;49.756;6.994;2023-07-08T08:10:06;11.83;;;7.20;;
2021;SDS011;1015;49.756;6.994;2023-07-08T08:12:34;9.87;;;6.47;;
2021;SDS011;1015;49.756;6.994;2023-07-08T08:15:01;7.20;;;6.50;;
2021;SDS011;1015;49.756;6.994;2023-07-08T08:17:30;7.40;;;6.43;;
2021;SDS011;1015;49.756;6.994;2023-07-08T08:19:57;7.60;;;6.80;;
2021;SDS011;1015;49.756;6.994;2023-07-08T08:22:24;7.80;;;6.63;;
2021;SDS011;1015;49.756;6.994;2023-07-08T08:24:52;9.20;;;7.13;;
2021;SDS011;1015;49.756;6.994;2023-07-08T08:27:19;9.20;;;6.70;;
2021;SDS011;1015;49.756;6.994;2023-07-08T08:29:46;6.70;;;6.10;;
2021;SDS011;1015;49.756;6.994;2023-07-08T08:32:13;8.63;;;6.70;;
2021;SDS011;1015;49.756;6.994;2023-07-08T08:34:42;8.63;;;7.03;;
2021;SDS011;1015;49.756;6.994;2023-07-08T08:37:10;7.90;;;7.10;;
2021;SDS011;1015;49.756;6.994;2023-07-08T08:39:37;8.40;;;6.77;;
2021;SDS011;1015;49.756;6.994;2023-07-08T08:42:06;7.40;;;6.70;;
2021;SDS011;1015;49.756;6.994;2023-07-08T08:44:36;7.10;;;6.40;;
2021;SDS011;1015;49.756;6.994;2023-07-08T08:47:05;7.60;;;6.80;;
2021;SDS011;1015;49.756;6.994;2023-07-08T08:49:35;9.33;;;7.00;;
2021;SDS011;1015;49.756;6.994;2023-07-08T08:52:06;8.23;;;7.20;;
2021;SDS011;1015;49.756;6.994;2023-07-08T08:54:33;7.37;;;6.57;;
2021;SDS011;1015;49.756;6.994;2023-07-08T08:57:04;7.97;;;7.17;;
2021;SDS011;1015;49.756;6.994;2023-07-08T08:59:36;8.47;;;7.20;;
2021;SDS011;1015;49.756;6.994;2023-07-08T09:02:14;8.13;;;6.70;;
2021;SDS011;1015;49.756;6.994;2023-07-08T09:04:46;7.83;;;6.90;;
2021;SDS011;1015;49.756;6.994;2023-07-08T09:07:16;7.47;;;6.70;;
2021;SDS011;1015;49.756;6.994;2023-07-08T09:09:45;6.97;;;6.13;;
2021;SDS011;1015;49.756;6.994;2023-07-08T09:12:13;8.30;;;6.60;;
2021;SDS011;1015;49.756;6.994;2023-07-08T09:14:43;9.73;;;6.87;;
2021;SDS011;1015;49.756;6.994;2023-07-08T09:17:14;7.90;;;7.10;;
2021;SDS011;1015;49.756;6.994;2023-07-08T09:19:43;9.17;;;6.57;;
2021;SDS011;1015;49.756;6.994;2023-07-08T09:22:12;7.40;;;6.70;;
2021;SDS011;1015;49.756;6.994;2023-07-08T09:24:42;7.90;;;7.10;;
2021;SDS011;1015;49.756;6.994;2023-07-08T09:27:10;7.90;;;6.93;;
2021;SDS011;1015;49.756;6.994;2023-07-08T09:29:38;8.60;;;7.27;;
2021;SDS011;1015;49.756;6.994;2023-07-08T09:32:11;9.60;;;7.10;;
2021;SDS011;1015;49.756;6.994;2023-07-08T09:34:41;7.23;;;6.53;;
2021;SDS011;1015;49.756;6.994;2023-07-08T09:37:19;8.77;;;6.40;;
2021;SDS011;1015;49.756;6.994;2023-07-08T09:39:49;7.20;;;6.00;;
2021;SDS011;1015;49.756;6.994;2023-07-08T09:42:16;7.17;;;6.00;;
2021;SDS011;1015;49.756;6.994;2023-07-08T09:44:44;7.93;;;6.40;;
2021;SDS011;1015;49.756;6.994;2023-07-08T09:47:20;8.13;;;5.73;;
2021;SDS011;1015;49.756;6.994;2023-07-08T09:49:48;5.90;;;5.30;;
2021;SDS011;1015;49.756;6.994;2023-07-08T09:52:15;8.47;;;5.93;;
2021;SDS011;1015;49.756;6.994;2023-07-08T09:54:44;6.67;;;5.20;;
2021;SDS011;1015;49.756;6.994;2023-07-08T09:57:16;6.10;;;5.50;;
2021;SDS011;1015;49.756;6.994;2023-07-08T09:59:46;8.30;;;5.80;;
2021;SDS011;1015;49.756;6.994;2023-07-08T10:02:27;5.27;;;4.70;;
2021;SDS011;1015;49.756;6.994;2023-07-08T10:04:56;5.80;;;5.20;;
2021;SDS011;1015;49.756;6.994;2023-07-08T10:07:23;7.27;;;5.40;;
2021;SDS011;1015;49.756;6.994;2023-07-08T10:09:54;7.23;;;4.70;;
2021;SDS011;1015;49.756;6.994;2023-07-08T10:12:24;6.10;;;5.53;;
2021;SDS011;1015;49.756;6.994;2023-07-08T10:14:52;7.97;;;5.90;;
2021;SDS011;1015;49.756;6.994;2023-07-08T10:17:21;6.00;;;5.50;;
2021;SDS011;1015;49.756;6.994;2023-07-08T10:19:48;10.00;;;5.77;;
2021;SDS011;1015;49.756;6.994;2023-07-08T10:22:22;6.10;;;4.93;;
2021;SDS011;1015;49.756;6.994;2023-07-08T10:24:55;7.80;;;5.60;;
2021;SDS011;1015;49.756;6.994;2023-07-08T10:27:31;7.33;;;5.97;;
2021;SDS011;1015;49.756;6.994;2023-07-08T10:30:03;6.60;;;5.80;;
2021;SDS011;1015;49.756;6.994;2023-07-08T10:32:40;5.63;;;5.03;;
2021;SDS011;1015;49.756;6.994;2023-07-08T10:35:12;5.83;;;5.20;;
2021;SDS011;1015;49.756;6.994;2023-07-08T10:37:42;5.60;;;5.10;;
2021;SDS011;1015;49.756;6.994;2023-07-08T10:40:19;6.73;;;5.30;;
2021;SDS011;1015;49.756;6.994;2023-07-08T10:45:36;5.83;;;4.97;;
2021;SDS011;1015;49.756;6.994;2023-07-08T10:48:12;6.17;;;5.47;;
2021;SDS011;1015;49.756;6.994;2023-07-08T10:50:47;6.30;;;5.10;;
2021;SDS011;1015;49.756;6.994;2023-07-08T10:53:21;6.30;;;5.03;;
2021;SDS011;1015;49.756;6.994;2023-07-08T10:55:53;6.10;;;5.50;;
2021;SDS011;1015;49.756;6.994;2023-07-08T11:01:17;6.90;;;5.70;;
2021;SDS011;1015;49.756;6.994;2023-07-08T11:06:34;5.80;;;5.30;;
2021;SDS011;1015;49.756;6.994;2023-07-08T11:09:04;5.83;;;5.33;;
2021;SDS011;1015;49.756;6.994;2023-07-08T11:11:34;7.87;;;5.60;;
2021;SDS011;1015;49.756;6.994;2023-07-08T11:14:04;6.93;;;4.87;;
2021;SDS011;1015;49.756;6.994;2023-07-08T11:16:36;5.90;;;4.60;;
2021;SDS011;1015;49.756;6.994;2023-07-08T11:19:04;6.90;;;4.67;;
2021;SDS011;1015;49.756;6.994;2023-07-08T11:21:35;6.13;;;5.47;;
2021;SDS011;1015;49.756;6.994;2023-07-08T11:24:04;5.53;;;5.03;;
2021;SDS011;1015;49.756;6.994;2023-07-08T11:26:33;6.07;;;4.70;;
2021;SDS011;1015;49.756;6.994;2023-07-08T11:29:05;5.27;;;4.77;;
2021;SDS011;1015;49.756;6.994;2023-07-08T11:31:39;7.57;;;5.73;;
2021;SDS011;1015;49.756;6.994;2023-07-08T11:34:06;6.53;;;5.00;;
2021;SDS011;1015;49.756;6.994;2023-07-08T11:36:35;6.60;;;4.83;;
2021;SDS011;1015;49.756;6.994;2023-07-08T11:39:04;5.83;;;5.33;;
2021;SDS011;1015;49.756;6.994;2023-07-08T11:41:50;6.43;;;4.80;;
2021;SDS011;1015;49.756;6.994;2023-07-08T11:44:20;7.90;;;4.57;;
2021;SDS011;1015;49.756;6.994;2023-07-08T11:46:54;6.20;;;4.87;;
2021;SDS011;1015;49.756;6.994;2023-07-08T11:49:21;6.43;;;4.97;;
2021;SDS011;1015;49.756;6.994;2023-07-08T11:51:49;5.27;;;4.77;;
2021;SDS011;1015;49.756;6.994;2023-07-08T11:54:19;5.70;;;5.10;;
2021;SDS011;1015;49.756;6.994;2023-07-08T11:56:48;5.97;;;4.90;;
2021;SDS011;1015;49.756;6.994;2023-07-08T11:59:17;5.00;;;4.60;;
2021;SDS011;1015;49.756;6.994;2023-07-08T12:01:48;7.30;;;4.77;;
2021;SDS011;1015;49.756;6.994;2023-07-08T12:04:30;5.73;;;5.23;;
2021;SDS011;1015;49.756;6.994;2023-07-08T12:07:02;7.00;;;4.57;;
2021;SDS011;1015;49.756;6.994;2023-07-08T12:09:35;6.07;;;5.20;;
2021;SDS011;1015;49.756;6.994;2023-07-08T12:12:05;9.77;;;4.90;;
2021;SDS011;1015;49.756;6.994;2023-07-08T12:14:32;4.93;;;4.40;;
2021;SDS011;1015;49.756;6.994;2023-07-08T12:17:00;7.70;;;4.90;;
2021;SDS011;1015;49.756;6.994;2023-07-08T12:19:28;5.87;;;5.37;;
2021;SDS011;1015;49.756;6.994;2023-07-08T12:21:57;6.47;;;5.03;;
2021;SDS011;1015;49.756;6.994;2023-07-08T12:24:25;6.10;;;5.27;;
2021;SDS011;1015;49.756;6.994;2023-07-08T12:26:53;6.03;;;5.40;;
2021;SDS011;1015;49.756;6.994;2023-07-08T12:29:20;7.23;;;5.47;;
2021;SDS011;1015;49.756;6.994;2023-07-08T12:31:47;6.00;;;5.40;;
2021;SDS011;1015;49.756;6.994;2023-07-08T12:34:15;5.83;;;4.63;;
2021;SDS011;1015;49.756;6.994;2023-07-08T12:36:45;6.93;;;4.80;;
2021;SDS011;1015;49.756;6.994;2023-07-08T12:39:13;5.80;;;5.30;;
2021;SDS011;1015;49.756;6.994;2023-07-08T12:41:42;5.87;;;5.20;;
2021;SDS011;1015;49.756;6.994;2023-07-08T12:44:14;7.10;;;4.97;;
2021;SDS011;1015;49.756;6.994;2023-07-08T12:46:41;5.50;;;4.70;;
2021;SDS011;1015;49.756;6.994;2023-07-08T12:49:09;6.33;;;5.00;;
2021;SDS011;1015;49.756;6.994;2023-07-08T12:51:36;8.20;;;5.10;;
2021;SDS011;1015;49.756;6.994;2023-07-08T12:54:08;6.47;;;5.03;;
2021;SDS011;1015;49.756;6.994;2023-07-08T12:56:36;5.57;;;4.60;;
2021;SDS011;1015;49.756;6.994;2023-07-08T12:59:04;7.00;;;6.30;;
2021;SDS011;1015;49.756;6.994;2023-07-08T13:01:32;6.23;;;5.37;;
2021;SDS011;1015;49.756;6.994;2023-07-08T13:04:02;6.43;;;5.07;;
2021;SDS011;1015;49.756;6.994;2023-07-08T13:06:30;5.43;;;4.93;;
2021;SDS011;1015;49.756;6.994;2023-07-08T13:08:59;6.10;;;5.13;;
2021;SDS011;1015;49.756;6.994;2023-07-08T13:11:30;6.10;;;4.57;;
2021;SDS011;1015;49.756;6.994;2023-07-08T13:13:58;5.47;;;5.00;;
2021;SDS011;1015;49.756;6.994;2023-07-08T13:16:28;4.67;;;4.23;;
2021;SDS011;1015;49.756;6.994;2023-07-08T13:18:56;6.20;;;5.30;;
2021;SDS011;1015;49.756;6.994;2023-07-08T13:21:24;6.20;;;4.70;;
2021;SDS011;1015;49.756;6.994;2023-07-08T13:23:52;8.87;;;5.30;;
2021;SDS011;1015;49.756;6.994;2023-07-08T13:26:20;5.20;;;4.70;;
2021;SDS011;1015;49.756;6.994;2023-07-08T13:28:49;4.90;;;4.50;;
2021;SDS011;1015;49.756;6.994;2023-07-08T13:31:17;5.80;;;4.83;;
2021;SDS011;1015;49.756;6.994;2023-07-08T13:33:45;5.13;;;4.73;;
2021;SDS011;1015;49.756;6.994;2023-07-08T13:36:13;5.50;;;5.10;;
2021;SDS011;1015;49.756;6.994;2023-07-08T13:38:40;5.37;;;4.87;;
2021;SDS011;1015;49.756;6.994;2023-07-08T13:41:07;5.23;;;4.73;;
2021;SDS011;1015;49.756;6.994;2023-07-08T13:43:38;5.20;;;4.70;;
2021;SDS011;1015;49.756;6.994;2023-07-08T13:48:49;6.30;;;4.80;;
2021;SDS011;1015;49.756;6.994;2023-07-08T13:51:17;5.97;;;5.37;;
2021;SDS011;1015;49.756;6.994;2023-07-08T13:53:46;6.37;;;5.10;;
2021;SDS011;1015;49.756;6.994;2023-07-08T13:56:15;5.57;;;4.93;;
2021;SDS011;1015;49.756;6.994;2023-07-08T13:58:43;5.20;;;4.00;;
2021;SDS011;1015;49.756;6.994;2023-07-08T14:01:11;5.23;;;4.73;;
2021;SDS011;1015;49.756;6.994;2023-07-08T14:03:41;5.67;;;4.53;;
2021;SDS011;1015;49.756;6.994;2023-07-08T14:06:13;5.30;;;4.90;;
2021;SDS011;1015;49.756;6.994;2023-07-08T14:08:40;7.70;;;5.00;;
2021;SDS011;1015;49.756;6.994;2023-07-08T14:11:08;5.23;;;4.73;;
2021;SDS011;1015;49.756;6.994;2023-07-08T14:13:35;5.53;;;5.07;;
2021;SDS011;1015;49.756;6.994;2023-07-08T14:16:02;6.13;;;5.10;;
2021;SDS011;1015;49.756;6.994;2023-07-08T14:18:30;5.20;;;4.80;;
2021;SDS011;1015;49.756;6.994;2023-07-08T14:20:58;4.87;;;4.33;;
2021;SDS011;1015;49.756;6.994;2023-07-08T14:23:26;6.90;;;5.10;;
2021;SDS011;1015;49.756;6.994;2023-07-08T14:25:54;4.70;;;4.30;;
2021;SDS011;1015;49.756;6.994;2023-07-08T14:28:21;4.63;;;4.23;;
2021;SDS011;1015;49.756;6.994;2023-07-08T14:30:48;4.67;;;4.07;;
2021;SDS011;1015;49.756;6.994;2023-07-08T14:33:15;5.57;;;4.20;;
2021;SDS011;1015;49.756;6.994;2023-07-08T14:35:43;4.60;;;4.20;;
2021;SDS011;1015;49.756;6.994;2023-07-08T14:38:10;5.53;;;4.23;;
2021;SDS011;1015;49.756;6.994;2023-07-08T14:40:40;5.10;;;4.60;;
2021;SDS011;1015;49.756;6.994;2023-07-08T14:43:10;5.07;;;4.10;;
2021;SDS011;1015;49.756;6.994;2023-07-08T14:45:39;4.43;;;3.80;;
2021;SDS011;1015;49.756;6.994;2023-07-08T14:48:09;5.30;;;4.63;;
2021;SDS011;1015;49.756;6.994;2023-07-08T14:50:36;5.17;;;4.67;;
2021;SDS011;1015;49.756;6.994;2023-07-08T14:53:03;5.37;;;4.27;;
2021;SDS011;1015;49.756;6.994;2023-07-08T14:55:31;5.07;;;4.10;;
2021;SDS011;1015;49.756;6.994;2023-07-08T14:58:00;5.60;;;4.53;;
2021;SDS011;1015;49.756;6.994;2023-07-08T15:00:28;4.90;;;4.37;;
2021;SDS011;1015;49.756;6.994;2023-07-08T15:02:55;5.50;;;4.10;;
2021;SDS011;1015;49.756;6.994;2023-07-08T15:05:23;4.50;;;4.10;;
2021;SDS011;1015;49.756;6.994;2023-07-08T15:07:52;4.47;;;4.07;;
2021;SDS011;1015;49.756;6.994;2023-07-08T15:10:20;4.50;;;4.10;;
2021;SDS011;1015;49.756;6.994;2023-07-08T15:12:48;6.55;;;4.03;;
2021;SDS011;1015;49.756;6.994;2023-07-08T15:15:17;5.43;;;4.40;;
2021;SDS011;1015;49.756;6.994;2023-07-08T15:17:48;4.80;;;4.40;;
2021;SDS011;1015;49.756;6.994;2023-07-08T15:20:16;4.70;;;4.23;;
2021;SDS011;1015;49.756;6.994;2023-07-08T15:22:44;5.38;;;4.50;;
2021;SDS011;1015;49.756;6.994;2023-07-08T15:25:12;5.32;;;4.88;;
2021;SDS011;1015;49.756;6.994;2023-07-08T15:27:40;4.72;;;4.32;;
2021;SDS011;1015;49.756;6.994;2023-07-08T15:30:13;5.25;;;4.30;;
2021;SDS011;1015;49.756;6.994;2023-07-08T15:32:42;4.65;;;4.25;;
2021;SDS011;1015;49.756;6.994;2023-07-08T15:35:14;4.88;;;3.90;;